sensor_id;sensor_type;location;lat;lon;timestamp;temperature;humidity
3548;DHT22;1788;49.400;11.092;2023-05-16T00:01:53;15.00;55.20
3548;DHT22;1788;49.400;11.092;2023-05-16T00:04:19;15.00;55.20
3548;DHT22;1788;49.400;11.092;2023-05-16T00:06:46;14.90;55.20
3548;DHT22;1788;49.400;11.092;2023-05-16T00:09:12;14.90;55.30
3548;DHT22;1788;49.400;11.092;2023-05-16T00:11:39;14.80;55.20
3548;DHT22;1788;49.400;11.092;2023-05-16T00:14:08;14.80;55.30
3548;DHT22;1788;49.400;11.092;2023-05-16T00:16:35;14.70;55.40
3548;DHT22;1788;49.400;11.092;2023-05-16T00:19:02;14.70;55.40
3548;DHT22;1788;49.400;11.092;2023-05-16T00:21:28;14.70;55.40
3548;DHT22;1788;49.400;11.092;2023-05-16T00:23:57;14.60;55.50
3548;DHT22;1788;49.400;11.092;2023-05-16T00:26:25;14.60;55.60
3548;DHT22;1788;49.400;11.092;2023-05-16T00:28:51;14.50;55.50
3548;DHT22;1788;49.400;11.092;2023-05-16T00:31:19;14.50;55.70
3548;DHT22;1788;49.400;11.092;2023-05-16T00:33:46;14.40;55.60
3548;DHT22;1788;49.400;11.092;2023-05-16T00:36:13;14.40;55.60
3548;DHT22;1788;49.400;11.092;2023-05-16T00:38:40;14.40;55.70
3548;DHT22;1788;49.400;11.092;2023-05-16T00:41:06;14.30;55.70
3548;DHT22;1788;49.400;11.092;2023-05-16T00:43:33;14.30;55.80
3548;DHT22;1788;49.400;11.092;2023-05-16T00:45:59;14.30;55.80
3548;DHT22;1788;49.400;11.092;2023-05-16T00:48:26;14.20;55.80
3548;DHT22;1788;49.400;11.092;2023-05-16T00:50:53;14.20;55.90
3548;DHT22;1788;49.400;11.092;2023-05-16T00:53:19;14.20;55.90
3548;DHT22;1788;49.400;11.092;2023-05-16T00:55:47;14.10;56.00
3548;DHT22;1788;49.400;11.092;2023-05-16T00:58:13;14.10;56.00
3548;DHT22;1788;49.400;11.092;2023-05-16T01:00:40;14.00;55.90
3548;DHT22;1788;49.400;11.092;2023-05-16T01:03:07;14.00;56.00
3548;DHT22;1788;49.400;11.092;2023-05-16T01:05:35;13.90;56.10
3548;DHT22;1788;49.400;11.092;2023-05-16T01:08:01;13.90;56.00
3548;DHT22;1788;49.400;11.092;2023-05-16T01:10:30;13.90;56.10
3548;DHT22;1788;49.400;11.092;2023-05-16T01:12:58;13.90;56.10
3548;DHT22;1788;49.400;11.092;2023-05-16T01:15:24;13.80;56.10
3548;DHT22;1788;49.400;11.092;2023-05-16T01:23:03;13.70;56.10
3548;DHT22;1788;49.400;11.092;2023-05-16T01:25:16;13.60;56.10
3548;DHT22;1788;49.400;11.092;2023-05-16T01:27:37;13.60;56.20
3548;DHT22;1788;49.400;11.092;2023-05-16T01:32:31;13.60;56.30
3548;DHT22;1788;49.400;11.092;2023-05-16T01:34:57;13.60;56.40
3548;DHT22;1788;49.400;11.092;2023-05-16T01:37:28;13.50;56.30
3548;DHT22;1788;49.400;11.092;2023-05-16T01:39:55;13.50;56.40
3548;DHT22;1788;49.400;11.092;2023-05-16T01:42:19;13.50;56.40
3548;DHT22;1788;49.400;11.092;2023-05-16T01:44:49;13.50;56.50
3548;DHT22;1788;49.400;11.092;2023-05-16T01:47:13;13.50;56.50
3548;DHT22;1788;49.400;11.092;2023-05-16T01:52:07;13.50;56.60
3548;DHT22;1788;49.400;11.092;2023-05-16T01:54:33;13.50;56.60
3548;DHT22;1788;49.400;11.092;2023-05-16T01:57:00;13.50;56.60
3548;DHT22;1788;49.400;11.092;2023-05-16T01:59:26;13.50;56.60
3548;DHT22;1788;49.400;11.092;2023-05-16T02:01:53;13.50;56.50
3548;DHT22;1788;49.400;11.092;2023-05-16T02:04:20;13.50;56.50
3548;DHT22;1788;49.400;11.092;2023-05-16T02:06:47;13.50;56.70
3548;DHT22;1788;49.400;11.092;2023-05-16T02:09:14;13.50;56.70
3548;DHT22;1788;49.400;11.092;2023-05-16T02:11:41;13.50;56.70
3548;DHT22;1788;49.400;11.092;2023-05-16T02:14:08;13.50;56.70
3548;DHT22;1788;49.400;11.092;2023-05-16T02:16:36;13.50;56.70
3548;DHT22;1788;49.400;11.092;2023-05-16T02:19:02;13.50;56.80
3548;DHT22;1788;49.400;11.092;2023-05-16T02:21:29;13.50;56.80
3548;DHT22;1788;49.400;11.092;2023-05-16T02:23:56;13.40;56.80
3548;DHT22;1788;49.400;11.092;2023-05-16T02:26:23;13.40;56.80
3548;DHT22;1788;49.400;11.092;2023-05-16T02:28:50;13.40;56.90
3548;DHT22;1788;49.400;11.092;2023-05-16T02:33:43;13.40;57.00
3548;DHT22;1788;49.400;11.092;2023-05-16T02:36:10;13.40;57.00
3548;DHT22;1788;49.400;11.092;2023-05-16T02:38:36;13.40;57.00
3548;DHT22;1788;49.400;11.092;2023-05-16T02:41:03;13.40;57.10
3548;DHT22;1788;49.400;11.092;2023-05-16T02:43:29;13.30;57.00
3548;DHT22;1788;49.400;11.092;2023-05-16T02:45:56;13.30;57.10
3548;DHT22;1788;49.400;11.092;2023-05-16T02:48:23;13.30;57.10
3548;DHT22;1788;49.400;11.092;2023-05-16T02:50:49;13.20;57.00
3548;DHT22;1788;49.400;11.092;2023-05-16T02:53:16;13.20;57.00
3548;DHT22;1788;49.400;11.092;2023-05-16T02:55:42;13.20;57.10
3548;DHT22;1788;49.400;11.092;2023-05-16T02:58:10;13.20;57.10
3548;DHT22;1788;49.400;11.092;2023-05-16T03:00:37;13.10;57.20
3548;DHT22;1788;49.400;11.092;2023-05-16T03:03:04;13.10;57.20
3548;DHT22;1788;49.400;11.092;2023-05-16T03:05:31;13.10;57.40
3548;DHT22;1788;49.400;11.092;2023-05-16T03:07:58;13.10;57.30
3548;DHT22;1788;49.400;11.092;2023-05-16T03:10:25;13.10;57.40
3548;DHT22;1788;49.400;11.092;2023-05-16T03:12:51;13.10;56.90
3548;DHT22;1788;49.400;11.092;2023-05-16T03:15:18;13.10;57.40
3548;DHT22;1788;49.400;11.092;2023-05-16T03:17:44;13.10;57.40
3548;DHT22;1788;49.400;11.092;2023-05-16T03:20:12;13.10;57.40
3548;DHT22;1788;49.400;11.092;2023-05-16T03:22:38;13.10;57.40
3548;DHT22;1788;49.400;11.092;2023-05-16T03:25:06;13.10;57.50
3548;DHT22;1788;49.400;11.092;2023-05-16T03:27:33;13.10;57.50
3548;DHT22;1788;49.400;11.092;2023-05-16T03:29:59;13.10;57.50
3548;DHT22;1788;49.400;11.092;2023-05-16T03:32:26;13.10;57.50
3548;DHT22;1788;49.400;11.092;2023-05-16T03:34:52;13.10;57.60
3548;DHT22;1788;49.400;11.092;2023-05-16T03:37:19;13.10;57.70
3548;DHT22;1788;49.400;11.092;2023-05-16T03:39:46;13.10;57.70
3548;DHT22;1788;49.400;11.092;2023-05-16T03:42:13;13.10;57.70
3548;DHT22;1788;49.400;11.092;2023-05-16T03:44:40;13.10;58.40
3548;DHT22;1788;49.400;11.092;2023-05-16T03:47:07;13.10;57.80
3548;DHT22;1788;49.400;11.092;2023-05-16T03:49:34;13.20;57.90
3548;DHT22;1788;49.400;11.092;2023-05-16T03:52:01;13.20;58.00
3548;DHT22;1788;49.400;11.092;2023-05-16T03:54:27;13.20;58.00
3548;DHT22;1788;49.400;11.092;2023-05-16T03:56:54;13.30;58.00
3548;DHT22;1788;49.400;11.092;2023-05-16T03:59:20;13.30;58.10
3548;DHT22;1788;49.400;11.092;2023-05-16T04:01:48;13.40;58.20
3548;DHT22;1788;49.400;11.092;2023-05-16T04:04:14;13.30;58.20
3548;DHT22;1788;49.400;11.092;2023-05-16T04:06:42;13.40;58.30
3548;DHT22;1788;49.400;11.092;2023-05-16T04:09:08;13.40;58.20
3548;DHT22;1788;49.400;11.092;2023-05-16T04:11:36;13.50;59.00
3548;DHT22;1788;49.400;11.092;2023-05-16T04:14:02;13.40;58.30
3548;DHT22;1788;49.400;11.092;2023-05-16T04:16:30;13.50;58.20
3548;DHT22;1788;49.400;11.092;2023-05-16T04:18:56;13.50;58.40
3548;DHT22;1788;49.400;11.092;2023-05-16T04:21:23;13.50;58.40
3548;DHT22;1788;49.400;11.092;2023-05-16T04:23:50;13.60;58.50
3548;DHT22;1788;49.400;11.092;2023-05-16T04:26:17;13.60;58.50
3548;DHT22;1788;49.400;11.092;2023-05-16T04:28:44;13.60;58.40
3548;DHT22;1788;49.400;11.092;2023-05-16T04:31:10;13.70;58.50
3548;DHT22;1788;49.400;11.092;2023-05-16T04:33:38;13.70;58.50
3548;DHT22;1788;49.400;11.092;2023-05-16T04:36:04;13.70;58.50
3548;DHT22;1788;49.400;11.092;2023-05-16T04:38:31;13.70;58.50
3548;DHT22;1788;49.400;11.092;2023-05-16T04:40:57;13.80;58.60
3548;DHT22;1788;49.400;11.092;2023-05-16T04:43:24;13.80;58.60
3548;DHT22;1788;49.400;11.092;2023-05-16T04:45:51;13.80;58.60
3548;DHT22;1788;49.400;11.092;2023-05-16T04:48:18;13.80;58.60
3548;DHT22;1788;49.400;11.092;2023-05-16T04:50:45;13.90;58.70
3548;DHT22;1788;49.400;11.092;2023-05-16T04:53:12;13.80;58.60
3548;DHT22;1788;49.400;11.092;2023-05-16T04:55:39;13.90;58.30
3548;DHT22;1788;49.400;11.092;2023-05-16T04:58:06;13.90;58.80
3548;DHT22;1788;49.400;11.092;2023-05-16T05:00:34;13.90;58.80
3548;DHT22;1788;49.400;11.092;2023-05-16T05:03:00;13.90;58.80
3548;DHT22;1788;49.400;11.092;2023-05-16T05:05:28;14.00;59.00
3548;DHT22;1788;49.400;11.092;2023-05-16T05:07:54;14.00;59.00
3548;DHT22;1788;49.400;11.092;2023-05-16T05:10:22;14.10;59.20
3548;DHT22;1788;49.400;11.092;2023-05-16T05:12:48;14.10;59.20
3548;DHT22;1788;49.400;11.092;2023-05-16T05:15:15;14.10;59.20
3548;DHT22;1788;49.400;11.092;2023-05-16T05:17:41;14.10;59.30
3548;DHT22;1788;49.400;11.092;2023-05-16T05:22:35;14.20;59.40
3548;DHT22;1788;49.400;11.092;2023-05-16T05:25:04;14.30;59.50
3548;DHT22;1788;49.400;11.092;2023-05-16T05:27:29;14.40;59.60
3548;DHT22;1788;49.400;11.092;2023-05-16T05:29:56;14.40;59.60
3548;DHT22;1788;49.400;11.092;2023-05-16T05:32:23;14.50;59.70
3548;DHT22;1788;49.400;11.092;2023-05-16T05:34:50;14.50;59.60
3548;DHT22;1788;49.400;11.092;2023-05-16T05:37:17;14.60;60.40
3548;DHT22;1788;49.400;11.092;2023-05-16T05:39:44;14.60;59.70
3548;DHT22;1788;49.400;11.092;2023-05-16T05:42:11;14.70;59.80
3548;DHT22;1788;49.400;11.092;2023-05-16T05:44:37;14.70;59.80
3548;DHT22;1788;49.400;11.092;2023-05-16T05:49:31;14.90;60.00
3548;DHT22;1788;49.400;11.092;2023-05-16T05:51:58;15.00;60.20
3548;DHT22;1788;49.400;11.092;2023-05-16T05:54:25;15.00;60.20
3548;DHT22;1788;49.400;11.092;2023-05-16T05:56:52;15.10;60.20
3548;DHT22;1788;49.400;11.092;2023-05-16T05:59:18;15.20;60.30
3548;DHT22;1788;49.400;11.092;2023-05-16T06:01:46;15.40;60.30
3548;DHT22;1788;49.400;11.092;2023-05-16T06:04:12;15.40;60.30
3548;DHT22;1788;49.400;11.092;2023-05-16T06:06:40;15.60;60.30
3548;DHT22;1788;49.400;11.092;2023-05-16T06:09:06;15.60;60.30
3548;DHT22;1788;49.400;11.092;2023-05-16T06:11:34;15.80;60.10
3548;DHT22;1788;49.400;11.092;2023-05-16T06:14:00;15.80;60.00
3548;DHT22;1788;49.400;11.092;2023-05-16T06:16:28;16.00;59.90
3548;DHT22;1788;49.400;11.092;2023-05-16T06:18:54;16.00;59.80
3548;DHT22;1788;49.400;11.092;2023-05-16T06:21:22;16.20;59.80
3548;DHT22;1788;49.400;11.092;2023-05-16T06:23:48;16.20;59.80
3548;DHT22;1788;49.400;11.092;2023-05-16T06:26:16;16.40;59.60
3548;DHT22;1788;49.400;11.092;2023-05-16T06:28:42;16.40;59.60
3548;DHT22;1788;49.400;11.092;2023-05-16T06:31:09;16.60;59.60
3548;DHT22;1788;49.400;11.092;2023-05-16T06:33:36;16.70;59.50
3548;DHT22;1788;49.400;11.092;2023-05-16T06:36:03;16.80;59.40
3548;DHT22;1788;49.400;11.092;2023-05-16T06:38:30;16.90;59.20
3548;DHT22;1788;49.400;11.092;2023-05-16T06:40:57;17.10;59.00
3548;DHT22;1788;49.400;11.092;2023-05-16T06:43:24;17.10;59.00
3548;DHT22;1788;49.400;11.092;2023-05-16T06:45:51;17.20;58.60
3548;DHT22;1788;49.400;11.092;2023-05-16T06:48:18;17.20;58.60
3548;DHT22;1788;49.400;11.092;2023-05-16T06:53:12;17.20;58.40
3548;DHT22;1788;49.400;11.092;2023-05-16T06:55:39;17.40;58.80
3548;DHT22;1788;49.400;11.092;2023-05-16T06:58:06;17.40;58.30
3548;DHT22;1788;49.400;11.092;2023-05-16T07:00:33;17.60;58.00
3548;DHT22;1788;49.400;11.092;2023-05-16T07:03:00;17.60;58.00
3548;DHT22;1788;49.400;11.092;2023-05-16T07:05:27;17.90;57.70
3548;DHT22;1788;49.400;11.092;2023-05-16T07:07:54;17.90;57.70
3548;DHT22;1788;49.400;11.092;2023-05-16T07:10:21;18.10;57.50
3548;DHT22;1788;49.400;11.092;2023-05-16T07:12:48;18.00;57.40
3548;DHT22;1788;49.400;11.092;2023-05-16T07:15:15;18.20;57.20
3548;DHT22;1788;49.400;11.092;2023-05-16T07:17:42;18.20;57.20
3548;DHT22;1788;49.400;11.092;2023-05-16T07:20:09;18.30;56.80
3548;DHT22;1788;49.400;11.092;2023-05-16T07:22:36;18.20;56.70
3548;DHT22;1788;49.400;11.092;2023-05-16T07:25:03;18.40;56.50
3548;DHT22;1788;49.400;11.092;2023-05-16T07:27:30;18.40;56.50
3548;DHT22;1788;49.400;11.092;2023-05-16T07:29:56;18.40;56.30
3548;DHT22;1788;49.400;11.092;2023-05-16T07:32:23;18.50;56.20
3548;DHT22;1788;49.400;11.092;2023-05-16T07:34:49;18.60;56.00
3548;DHT22;1788;49.400;11.092;2023-05-16T07:37:16;18.80;55.90
3548;DHT22;1788;49.400;11.092;2023-05-16T07:39:43;18.90;55.60
3548;DHT22;1788;49.400;11.092;2023-05-16T07:42:09;19.10;55.50
3548;DHT22;1788;49.400;11.092;2023-05-16T07:44:36;19.20;55.30
3548;DHT22;1788;49.400;11.092;2023-05-16T07:47:06;19.30;55.10
3548;DHT22;1788;49.400;11.092;2023-05-16T07:49:33;19.50;55.00
3548;DHT22;1788;49.400;11.092;2023-05-16T07:52:00;19.60;54.80
3548;DHT22;1788;49.400;11.092;2023-05-16T07:54:26;19.70;54.70
3548;DHT22;1788;49.400;11.092;2023-05-16T07:56:54;19.90;54.30
3548;DHT22;1788;49.400;11.092;2023-05-16T07:59:20;19.90;54.20
3548;DHT22;1788;49.400;11.092;2023-05-16T08:01:48;20.00;53.80
3548;DHT22;1788;49.400;11.092;2023-05-16T08:04:14;20.00;53.70
3548;DHT22;1788;49.400;11.092;2023-05-16T08:06:41;20.10;53.30
3548;DHT22;1788;49.400;11.092;2023-05-16T08:09:08;20.10;53.30
3548;DHT22;1788;49.400;11.092;2023-05-16T08:11:35;20.20;53.40
3548;DHT22;1788;49.400;11.092;2023-05-16T08:14:02;20.20;52.90
3548;DHT22;1788;49.400;11.092;2023-05-16T08:16:29;20.30;52.60
3548;DHT22;1788;49.400;11.092;2023-05-16T08:18:56;20.20;52.50
3548;DHT22;1788;49.400;11.092;2023-05-16T08:21:24;20.30;52.40
3548;DHT22;1788;49.400;11.092;2023-05-16T08:23:50;20.20;52.30
3548;DHT22;1788;49.400;11.092;2023-05-16T08:26:17;20.40;52.20
3548;DHT22;1788;49.400;11.092;2023-05-16T08:28:44;20.40;52.20
3548;DHT22;1788;49.400;11.092;2023-05-16T08:31:11;20.50;52.10
3548;DHT22;1788;49.400;11.092;2023-05-16T08:33:37;20.70;52.00
3548;DHT22;1788;49.400;11.092;2023-05-16T08:36:04;20.80;51.80
3548;DHT22;1788;49.400;11.092;2023-05-16T08:38:31;20.90;51.50
3548;DHT22;1788;49.400;11.092;2023-05-16T08:40:57;21.00;51.20
3548;DHT22;1788;49.400;11.092;2023-05-16T08:43:24;21.00;50.90
3548;DHT22;1788;49.400;11.092;2023-05-16T08:45:50;21.00;50.80
3548;DHT22;1788;49.400;11.092;2023-05-16T08:48:17;21.00;50.70
3548;DHT22;1788;49.400;11.092;2023-05-16T08:50:44;21.10;50.70
3548;DHT22;1788;49.400;11.092;2023-05-16T08:53:11;21.20;50.60
3548;DHT22;1788;49.400;11.092;2023-05-16T08:55:37;21.30;50.30
3548;DHT22;1788;49.400;11.092;2023-05-16T08:58:04;21.40;50.00
3548;DHT22;1788;49.400;11.092;2023-05-16T09:00:31;21.50;49.60
3548;DHT22;1788;49.400;11.092;2023-05-16T09:03:01;21.70;49.00
3548;DHT22;1788;49.400;11.092;2023-05-16T09:05:28;21.70;49.00
3548;DHT22;1788;49.400;11.092;2023-05-16T09:07:54;21.80;48.80
3548;DHT22;1788;49.400;11.092;2023-05-16T09:10:20;21.90;48.50
3548;DHT22;1788;49.400;11.092;2023-05-16T09:12:48;21.90;47.90
3548;DHT22;1788;49.400;11.092;2023-05-16T09:15:16;21.90;47.60
3548;DHT22;1788;49.400;11.092;2023-05-16T09:17:42;22.00;47.40
3548;DHT22;1788;49.400;11.092;2023-05-16T09:20:08;22.10;47.20
3548;DHT22;1788;49.400;11.092;2023-05-16T09:22:34;22.20;47.20
3548;DHT22;1788;49.400;11.092;2023-05-16T09:25:02;22.30;46.90
3548;DHT22;1788;49.400;11.092;2023-05-16T09:27:29;22.30;46.90
3548;DHT22;1788;49.400;11.092;2023-05-16T09:29:56;22.40;46.70
3548;DHT22;1788;49.400;11.092;2023-05-16T09:32:23;22.50;46.70
3548;DHT22;1788;49.400;11.092;2023-05-16T09:34:51;22.40;47.00
3548;DHT22;1788;49.400;11.092;2023-05-16T09:37:17;22.40;46.90
3548;DHT22;1788;49.400;11.092;2023-05-16T09:42:11;22.10;47.30
3548;DHT22;1788;49.400;11.092;2023-05-16T09:44:37;22.00;47.50
3548;DHT22;1788;49.400;11.092;2023-05-16T09:47:04;22.00;47.70
3548;DHT22;1788;49.400;11.092;2023-05-16T09:49:30;21.90;48.00
3548;DHT22;1788;49.400;11.092;2023-05-16T09:56:52;21.70;48.30
3548;DHT22;1788;49.400;11.092;2023-05-16T09:59:20;21.50;48.30
3548;DHT22;1788;49.400;11.092;2023-05-16T10:01:46;21.50;48.70
3548;DHT22;1788;49.400;11.092;2023-05-16T10:04:13;21.50;48.40
3548;DHT22;1788;49.400;11.092;2023-05-16T10:06:40;21.50;48.80
3548;DHT22;1788;49.400;11.092;2023-05-16T10:09:09;21.50;48.90
3548;DHT22;1788;49.400;11.092;2023-05-16T10:11:33;21.40;48.90
3548;DHT22;1788;49.400;11.092;2023-05-16T10:14:00;21.50;49.00
3548;DHT22;1788;49.400;11.092;2023-05-16T10:16:26;21.60;49.00
3548;DHT22;1788;49.400;11.092;2023-05-16T10:18:54;21.70;49.00
3548;DHT22;1788;49.400;11.092;2023-05-16T10:21:21;21.70;48.70
3548;DHT22;1788;49.400;11.092;2023-05-16T10:23:47;21.80;48.60
3548;DHT22;1788;49.400;11.092;2023-05-16T10:26:15;21.90;48.50
3548;DHT22;1788;49.400;11.092;2023-05-16T10:28:40;22.00;48.40
3548;DHT22;1788;49.400;11.092;2023-05-16T10:33:33;22.30;47.90
3548;DHT22;1788;49.400;11.092;2023-05-16T10:36:00;22.40;47.60
3548;DHT22;1788;49.400;11.092;2023-05-16T10:38:27;22.50;47.50
3548;DHT22;1788;49.400;11.092;2023-05-16T10:40:54;22.60;47.40
3548;DHT22;1788;49.400;11.092;2023-05-16T10:43:22;22.50;47.00
3548;DHT22;1788;49.400;11.092;2023-05-16T10:45:52;22.40;46.80
3548;DHT22;1788;49.400;11.092;2023-05-16T10:48:16;22.30;47.00
3548;DHT22;1788;49.400;11.092;2023-05-16T10:50:44;22.30;47.10
3548;DHT22;1788;49.400;11.092;2023-05-16T10:53:11;22.30;46.90
3548;DHT22;1788;49.400;11.092;2023-05-16T10:55:37;22.40;47.00
3548;DHT22;1788;49.400;11.092;2023-05-16T10:58:03;22.50;46.90
3548;DHT22;1788;49.400;11.092;2023-05-16T11:00:29;22.60;46.70
3548;DHT22;1788;49.400;11.092;2023-05-16T11:05:23;22.60;46.40
3548;DHT22;1788;49.400;11.092;2023-05-16T11:08:01;22.60;45.60
3548;DHT22;1788;49.400;11.092;2023-05-16T11:10:18;22.50;45.90
3548;DHT22;1788;49.400;11.092;2023-05-16T11:17:41;22.60;45.70
3548;DHT22;1788;49.400;11.092;2023-05-16T11:20:23;23.00;45.40
3548;DHT22;1788;49.400;11.092;2023-05-16T11:22:37;23.00;45.40
3548;DHT22;1788;49.400;11.092;2023-05-16T11:25:04;23.40;45.00
3548;DHT22;1788;49.400;11.092;2023-05-16T11:32:23;23.60;44.70
3548;DHT22;1788;49.400;11.092;2023-05-16T11:34:50;23.50;44.70
3548;DHT22;1788;49.400;11.092;2023-05-16T11:37:16;23.40;44.70
3548;DHT22;1788;49.400;11.092;2023-05-16T11:39:42;23.30;44.70
3548;DHT22;1788;49.400;11.092;2023-05-16T11:42:09;23.20;44.80
3548;DHT22;1788;49.400;11.092;2023-05-16T11:44:36;23.00;44.80
3548;DHT22;1788;49.400;11.092;2023-05-16T11:47:03;22.90;44.90
3548;DHT22;1788;49.400;11.092;2023-05-16T11:49:30;23.00;45.00
3548;DHT22;1788;49.400;11.092;2023-05-16T11:51:57;23.00;44.90
3548;DHT22;1788;49.400;11.092;2023-05-16T11:54:24;22.90;44.20
3548;DHT22;1788;49.400;11.092;2023-05-16T11:56:51;22.90;44.60
3548;DHT22;1788;49.400;11.092;2023-05-16T11:59:18;22.60;45.10
3548;DHT22;1788;49.400;11.092;2023-05-16T12:01:45;22.60;44.70
3548;DHT22;1788;49.400;11.092;2023-05-16T12:04:12;22.60;44.80
3548;DHT22;1788;49.400;11.092;2023-05-16T12:06:38;22.60;44.70
3548;DHT22;1788;49.400;11.092;2023-05-16T12:09:05;22.80;44.70
3548;DHT22;1788;49.400;11.092;2023-05-16T12:11:32;23.10;44.10
3548;DHT22;1788;49.400;11.092;2023-05-16T12:13:59;23.10;44.10
3548;DHT22;1788;49.400;11.092;2023-05-16T12:16:26;23.30;44.00
3548;DHT22;1788;49.400;11.092;2023-05-16T12:18:54;23.30;43.80
3548;DHT22;1788;49.400;11.092;2023-05-16T12:21:21;23.20;43.50
3548;DHT22;1788;49.400;11.092;2023-05-16T12:23:48;23.20;43.40
3548;DHT22;1788;49.400;11.092;2023-05-16T12:26:22;23.60;43.70
3548;DHT22;1788;49.400;11.092;2023-05-16T12:28:43;23.60;43.70
3548;DHT22;1788;49.400;11.092;2023-05-16T12:33:37;24.20;42.90
3548;DHT22;1788;49.400;11.092;2023-05-16T12:36:03;24.20;42.90
3548;DHT22;1788;49.400;11.092;2023-05-16T12:38:31;24.30;42.60
3548;DHT22;1788;49.400;11.092;2023-05-16T12:40:57;24.30;42.60
3548;DHT22;1788;49.400;11.092;2023-05-16T12:43:24;24.40;42.50
3548;DHT22;1788;49.400;11.092;2023-05-16T12:48:18;24.60;42.20
3548;DHT22;1788;49.400;11.092;2023-05-16T12:50:46;24.40;42.00
3548;DHT22;1788;49.400;11.092;2023-05-16T12:53:13;24.40;41.80
3548;DHT22;1788;49.400;11.092;2023-05-16T12:55:40;24.20;41.90
3548;DHT22;1788;49.400;11.092;2023-05-16T12:58:08;24.50;41.90
3548;DHT22;1788;49.400;11.092;2023-05-16T13:00:34;24.50;41.90
3548;DHT22;1788;49.400;11.092;2023-05-16T13:03:02;24.70;41.80
3548;DHT22;1788;49.400;11.092;2023-05-16T13:05:28;24.70;41.80
3548;DHT22;1788;49.400;11.092;2023-05-16T13:07:55;24.80;42.20
3548;DHT22;1788;49.400;11.092;2023-05-16T13:10:22;24.80;41.70
3548;DHT22;1788;49.400;11.092;2023-05-16T13:12:49;24.80;41.60
3548;DHT22;1788;49.400;11.092;2023-05-16T13:15:15;24.80;41.60
3548;DHT22;1788;49.400;11.092;2023-05-16T13:17:42;24.70;41.50
3548;DHT22;1788;49.400;11.092;2023-05-16T13:20:09;24.60;41.60
3548;DHT22;1788;49.400;11.092;2023-05-16T13:22:36;24.50;41.50
3548;DHT22;1788;49.400;11.092;2023-05-16T13:25:03;24.10;41.30
3548;DHT22;1788;49.400;11.092;2023-05-16T13:27:30;24.10;41.30
3548;DHT22;1788;49.400;11.092;2023-05-16T13:29:57;23.70;41.30
3548;DHT22;1788;49.400;11.092;2023-05-16T13:32:24;23.40;41.40
3548;DHT22;1788;49.400;11.092;2023-05-16T13:34:50;23.00;41.60
3548;DHT22;1788;49.400;11.092;2023-05-16T13:37:17;22.30;42.50
3548;DHT22;1788;49.400;11.092;2023-05-16T13:39:44;22.30;42.00
3548;DHT22;1788;49.400;11.092;2023-05-16T13:42:11;22.00;42.50
3548;DHT22;1788;49.400;11.092;2023-05-16T13:44:38;22.00;42.50
3548;DHT22;1788;49.400;11.092;2023-05-16T13:47:05;21.70;43.20
3548;DHT22;1788;49.400;11.092;2023-05-16T13:49:32;21.70;42.70
3548;DHT22;1788;49.400;11.092;2023-05-16T13:51:58;21.70;42.80
3548;DHT22;1788;49.400;11.092;2023-05-16T13:54:25;21.70;42.80
3548;DHT22;1788;49.400;11.092;2023-05-16T13:56:52;21.70;42.80
3548;DHT22;1788;49.400;11.092;2023-05-16T13:59:19;21.40;42.70
3548;DHT22;1788;49.400;11.092;2023-05-16T14:01:48;21.30;42.90
3548;DHT22;1788;49.400;11.092;2023-05-16T14:04:14;21.20;42.80
3548;DHT22;1788;49.400;11.092;2023-05-16T14:06:42;20.90;43.10
3548;DHT22;1788;49.400;11.092;2023-05-16T14:09:08;20.90;43.10
3548;DHT22;1788;49.400;11.092;2023-05-16T14:11:35;20.80;43.30
3548;DHT22;1788;49.400;11.092;2023-05-16T14:14:02;20.70;43.40
3548;DHT22;1788;49.400;11.092;2023-05-16T14:16:28;20.60;43.40
3548;DHT22;1788;49.400;11.092;2023-05-16T14:18:55;20.70;43.40
3548;DHT22;1788;49.400;11.092;2023-05-16T14:21:22;20.70;43.30
3548;DHT22;1788;49.400;11.092;2023-05-16T14:23:48;20.60;43.30
3548;DHT22;1788;49.400;11.092;2023-05-16T14:26:15;20.50;43.30
3548;DHT22;1788;49.400;11.092;2023-05-16T14:28:42;20.10;43.50
3548;DHT22;1788;49.400;11.092;2023-05-16T14:31:09;20.10;43.50
3548;DHT22;1788;49.400;11.092;2023-05-16T14:33:35;19.90;43.50
3548;DHT22;1788;49.400;11.092;2023-05-16T14:36:02;19.70;43.60
3548;DHT22;1788;49.400;11.092;2023-05-16T14:38:29;19.50;43.70
3548;DHT22;1788;49.400;11.092;2023-05-16T14:40:56;19.40;44.20
3548;DHT22;1788;49.400;11.092;2023-05-16T14:43:23;19.30;44.10
3548;DHT22;1788;49.400;11.092;2023-05-16T14:45:50;19.30;44.20
3548;DHT22;1788;49.400;11.092;2023-05-16T14:48:17;19.30;44.10
3548;DHT22;1788;49.400;11.092;2023-05-16T14:50:44;19.30;44.20
3548;DHT22;1788;49.400;11.092;2023-05-16T14:53:11;19.30;44.20
3548;DHT22;1788;49.400;11.092;2023-05-16T14:55:37;19.30;44.30
3548;DHT22;1788;49.400;11.092;2023-05-16T14:58:04;19.30;44.30
3548;DHT22;1788;49.400;11.092;2023-05-16T15:00:30;19.20;44.40
3548;DHT22;1788;49.400;11.092;2023-05-16T15:02:58;19.00;44.60
3548;DHT22;1788;49.400;11.092;2023-05-16T15:05:25;18.90;44.50
3548;DHT22;1788;49.400;11.092;2023-05-16T15:07:52;18.90;44.70
3548;DHT22;1788;49.400;11.092;2023-05-16T15:10:19;18.80;44.90
3548;DHT22;1788;49.400;11.092;2023-05-16T15:12:45;18.70;44.90
3548;DHT22;1788;49.400;11.092;2023-05-16T15:15:12;18.70;45.00
3548;DHT22;1788;49.400;11.092;2023-05-16T15:17:39;18.60;45.10
3548;DHT22;1788;49.400;11.092;2023-05-16T15:20:06;18.40;45.10
3548;DHT22;1788;49.400;11.092;2023-05-16T15:22:32;18.30;45.20
3548;DHT22;1788;49.400;11.092;2023-05-16T15:24:58;18.30;45.40
3548;DHT22;1788;49.400;11.092;2023-05-16T15:27:26;18.30;45.60
3548;DHT22;1788;49.400;11.092;2023-05-16T15:29:52;18.20;45.50
3548;DHT22;1788;49.400;11.092;2023-05-16T15:32:21;18.20;45.80
3548;DHT22;1788;49.400;11.092;2023-05-16T15:34:48;18.20;45.90
3548;DHT22;1788;49.400;11.092;2023-05-16T15:37:15;18.20;45.90
3548;DHT22;1788;49.400;11.092;2023-05-16T15:39:42;18.10;46.10
3548;DHT22;1788;49.400;11.092;2023-05-16T15:42:09;18.10;46.10
3548;DHT22;1788;49.400;11.092;2023-05-16T15:44:35;18.00;46.10
3548;DHT22;1788;49.400;11.092;2023-05-16T15:47:02;17.90;46.20
3548;DHT22;1788;49.400;11.092;2023-05-16T15:49:28;17.80;46.20
3548;DHT22;1788;49.400;11.092;2023-05-16T15:51:56;17.70;46.30
3548;DHT22;1788;49.400;11.092;2023-05-16T15:54:22;17.70;46.30
3548;DHT22;1788;49.400;11.092;2023-05-16T15:56:50;17.60;46.40
3548;DHT22;1788;49.400;11.092;2023-05-16T15:59:16;17.60;46.40
3548;DHT22;1788;49.400;11.092;2023-05-16T16:01:44;17.50;46.50
3548;DHT22;1788;49.400;11.092;2023-05-16T16:04:10;17.40;46.30
3548;DHT22;1788;49.400;11.092;2023-05-16T16:06:37;17.40;46.40
3548;DHT22;1788;49.400;11.092;2023-05-16T16:09:04;17.40;46.50
3548;DHT22;1788;49.400;11.092;2023-05-16T16:11:30;17.40;46.70
3548;DHT22;1788;49.400;11.092;2023-05-16T16:13:58;17.30;46.80
3548;DHT22;1788;49.400;11.092;2023-05-16T16:16:24;17.30;46.80
3548;DHT22;1788;49.400;11.092;2023-05-16T16:18:52;17.20;46.90
3548;DHT22;1788;49.400;11.092;2023-05-16T16:21:18;17.20;46.80
3548;DHT22;1788;49.400;11.092;2023-05-16T16:23:45;17.20;47.00
3548;DHT22;1788;49.400;11.092;2023-05-16T16:26:11;17.10;47.10
3548;DHT22;1788;49.400;11.092;2023-05-16T16:28:38;17.10;47.10